sensor_id;sensor_type;location;lat;lon;timestamp;pressure;altitude;pressure_sealevel;temperature;humidity
45763;BME280;37512;52.408;13.356;2023-04-27T00:00:58;101312.13;;;6.22;99.36
45763;BME280;37512;52.408;13.356;2023-04-27T00:05:00;101313.66;;;6.37;97.82
45763;BME280;37512;52.408;13.356;2023-04-27T00:09:03;101303.41;;;6.29;97.20
45763;BME280;37512;52.408;13.356;2023-04-27T00:13:04;101305.53;;;6.32;98.33
45763;BME280;37512;52.408;13.356;2023-04-27T00:17:06;101297.75;;;6.25;97.61
45763;BME280;37512;52.408;13.356;2023-04-27T00:21:08;101296.28;;;6.28;97.99
45763;BME280;37512;52.408;13.356;2023-04-27T00:25:09;101296.25;;;6.19;97.80
45763;BME280;37512;52.408;13.356;2023-04-27T00:29:12;101297.50;;;5.96;99.36
45763;BME280;37512;52.408;13.356;2023-04-27T00:33:15;101301.06;;;5.96;99.73
45763;BME280;37512;52.408;13.356;2023-04-27T00:37:17;101294.31;;;6.20;99.11
45763;BME280;37512;52.408;13.356;2023-04-27T00:41:19;101298.22;;;6.19;99.48
45763;BME280;37512;52.408;13.356;2023-04-27T00:45:23;101303.09;;;6.39;99.27
45763;BME280;37512;52.408;13.356;2023-04-27T00:49:25;101302.06;;;6.18;100.00
45763;BME280;37512;52.408;13.356;2023-04-27T00:53:27;101308.91;;;6.12;100.00
45763;BME280;37512;52.408;13.356;2023-04-27T00:57:28;101318.13;;;6.16;100.00
45763;BME280;37512;52.408;13.356;2023-04-27T01:01:30;101318.47;;;6.14;100.00
45763;BME280;37512;52.408;13.356;2023-04-27T01:05:32;101314.25;;;6.17;100.00
45763;BME280;37512;52.408;13.356;2023-04-27T01:09:34;101324.44;;;6.07;100.00
45763;BME280;37512;52.408;13.356;2023-04-27T01:13:36;101318.97;;;6.25;100.00
45763;BME280;37512;52.408;13.356;2023-04-27T01:17:38;101316.97;;;6.08;100.00
45763;BME280;37512;52.408;13.356;2023-04-27T01:21:39;101324.78;;;6.15;100.00
45763;BME280;37512;52.408;13.356;2023-04-27T01:25:41;101323.16;;;6.14;100.00
45763;BME280;37512;52.408;13.356;2023-04-27T01:29:43;101324.44;;;6.07;100.00
45763;BME280;37512;52.408;13.356;2023-04-27T01:33:44;101322.69;;;6.12;100.00
45763;BME280;37512;52.408;13.356;2023-04-27T01:37:46;101326.13;;;6.35;100.00
45763;BME280;37512;52.408;13.356;2023-04-27T01:41:48;101326.13;;;6.35;100.00
45763;BME280;37512;52.408;13.356;2023-04-27T01:45:49;101340.19;;;6.24;100.00
45763;BME280;37512;52.408;13.356;2023-04-27T01:49:51;101340.88;;;5.90;100.00
45763;BME280;37512;52.408;13.356;2023-04-27T01:53:52;101349.84;;;5.96;100.00
45763;BME280;37512;52.408;13.356;2023-04-27T01:57:54;101348.75;;;6.05;100.00
45763;BME280;37512;52.408;13.356;2023-04-27T02:01:55;101350.28;;;5.89;100.00
45763;BME280;37512;52.408;13.356;2023-04-27T02:05:57;101344.56;;;5.85;100.00
45763;BME280;37512;52.408;13.356;2023-04-27T02:09:58;101357.50;;;6.07;100.00
45763;BME280;37512;52.408;13.356;2023-04-27T02:14:00;101359.16;;;5.86;100.00
45763;BME280;37512;52.408;13.356;2023-04-27T02:18:02;101363.22;;;5.80;100.00
45763;BME280;37512;52.408;13.356;2023-04-27T02:22:04;101361.31;;;5.89;100.00
45763;BME280;37512;52.408;13.356;2023-04-27T02:26:05;101372.47;;;5.93;100.00
45763;BME280;37512;52.408;13.356;2023-04-27T02:30:08;101375.13;;;5.66;100.00
45763;BME280;37512;52.408;13.356;2023-04-27T02:34:11;101372.88;;;5.69;100.00
45763;BME280;37512;52.408;13.356;2023-04-27T02:38:13;101373.34;;;5.39;100.00
45763;BME280;37512;52.408;13.356;2023-04-27T02:42:14;101367.75;;;5.84;100.00
45763;BME280;37512;52.408;13.356;2023-04-27T02:46:16;101367.66;;;5.67;100.00
45763;BME280;37512;52.408;13.356;2023-04-27T02:50:18;101373.56;;;5.83;100.00
45763;BME280;37512;52.408;13.356;2023-04-27T02:54:19;101374.31;;;5.97;100.00
45763;BME280;37512;52.408;13.356;2023-04-27T02:58:21;101373.44;;;5.88;100.00
45763;BME280;37512;52.408;13.356;2023-04-27T03:02:22;101380.06;;;5.56;100.00
45763;BME280;37512;52.408;13.356;2023-04-27T03:06:24;101376.13;;;5.71;100.00
45763;BME280;37512;52.408;13.356;2023-04-27T03:10:27;101377.50;;;5.59;100.00
45763;BME280;37512;52.408;13.356;2023-04-27T03:14:28;101382.88;;;5.64;100.00
45763;BME280;37512;52.408;13.356;2023-04-27T03:18:30;101383.47;;;5.53;100.00
45763;BME280;37512;52.408;13.356;2023-04-27T03:22:32;101388.09;;;5.66;100.00
45763;BME280;37512;52.408;13.356;2023-04-27T03:26:33;101386.50;;;5.74;100.00
45763;BME280;37512;52.408;13.356;2023-04-27T03:30:34;101389.75;;;5.76;100.00
45763;BME280;37512;52.408;13.356;2023-04-27T03:34:36;101394.91;;;5.69;100.00
45763;BME280;37512;52.408;13.356;2023-04-27T03:38:37;101399.50;;;5.82;100.00
45763;BME280;37512;52.408;13.356;2023-04-27T03:42:39;101399.59;;;5.68;100.00
45763;BME280;37512;52.408;13.356;2023-04-27T03:46:41;101406.81;;;5.33;100.00
45763;BME280;37512;52.408;13.356;2023-04-27T03:50:43;101412.00;;;5.34;100.00
45763;BME280;37512;52.408;13.356;2023-04-27T03:54:44;101415.38;;;5.31;100.00
45763;BME280;37512;52.408;13.356;2023-04-27T03:58:46;101418.75;;;5.28;100.00
45763;BME280;37512;52.408;13.356;2023-04-27T04:02:47;101413.00;;;5.38;100.00
45763;BME280;37512;52.408;13.356;2023-04-27T04:06:49;101419.75;;;5.55;100.00
45763;BME280;37512;52.408;13.356;2023-04-27T04:10:51;101425.22;;;5.46;100.00
45763;BME280;37512;52.408;13.356;2023-04-27T04:14:52;101425.69;;;5.26;100.00
45763;BME280;37512;52.408;13.356;2023-04-27T04:18:53;101430.78;;;5.55;100.00
45763;BME280;37512;52.408;13.356;2023-04-27T04:22:55;101442.84;;;5.68;100.00
45763;BME280;37512;52.408;13.356;2023-04-27T04:26:57;101444.47;;;5.69;100.00
45763;BME280;37512;52.408;13.356;2023-04-27T04:31:02;101441.47;;;5.56;100.00
45763;BME280;37512;52.408;13.356;2023-04-27T04:35:05;101443.97;;;5.44;100.00
45763;BME280;37512;52.408;13.356;2023-04-27T04:39:07;101456.31;;;5.69;100.00
45763;BME280;37512;52.408;13.356;2023-04-27T04:43:08;101458.09;;;5.29;100.00
45763;BME280;37512;52.408;13.356;2023-04-27T04:47:10;101461.56;;;5.57;100.00
45763;BME280;37512;52.408;13.356;2023-04-27T04:51:12;101453.19;;;5.62;100.00
45763;BME280;37512;52.408;13.356;2023-04-27T04:55:13;101459.34;;;5.68;100.00
45763;BME280;37512;52.408;13.356;2023-04-27T04:59:15;101463.59;;;5.29;100.00
45763;BME280;37512;52.408;13.356;2023-04-27T05:03:17;101471.84;;;5.29;100.00
45763;BME280;37512;52.408;13.356;2023-04-27T05:07:19;101465.94;;;5.58;100.00
45763;BME280;37512;52.408;13.356;2023-04-27T05:11:25;101465.25;;;5.52;100.00
45763;BME280;37512;52.408;13.356;2023-04-27T05:15:27;101464.88;;;5.68;100.00
45763;BME280;37512;52.408;13.356;2023-04-27T05:19:29;101472.13;;;5.41;100.00
45763;BME280;37512;52.408;13.356;2023-04-27T05:23:31;101471.72;;;5.48;100.00
45763;BME280;37512;52.408;13.356;2023-04-27T05:27:32;101461.25;;;5.58;100.00
45763;BME280;37512;52.408;13.356;2023-04-27T05:31:34;101470.00;;;5.60;100.00
45763;BME280;37512;52.408;13.356;2023-04-27T05:35:35;101473.38;;;5.35;100.00
45763;BME280;37512;52.408;13.356;2023-04-27T05:39:37;101467.19;;;5.97;100.00
45763;BME280;37512;52.408;13.356;2023-04-27T05:43:39;101480.28;;;5.69;100.00
45763;BME280;37512;52.408;13.356;2023-04-27T05:47:41;101474.13;;;5.72;100.00
45763;BME280;37512;52.408;13.356;2023-04-27T05:51:42;101468.91;;;6.15;100.00
45763;BME280;37512;52.408;13.356;2023-04-27T05:55:44;101477.31;;;6.10;99.38
45763;BME280;37512;52.408;13.356;2023-04-27T05:59:45;101477.06;;;6.20;100.00
45763;BME280;37512;52.408;13.356;2023-04-27T06:03:47;101482.38;;;6.17;98.08
45763;BME280;37512;52.408;13.356;2023-04-27T06:07:49;101482.53;;;6.12;98.07
45763;BME280;37512;52.408;13.356;2023-04-27T06:11:50;101484.94;;;6.04;94.57
45763;BME280;37512;52.408;13.356;2023-04-27T06:15:51;101487.53;;;6.10;94.92
45763;BME280;37512;52.408;13.356;2023-04-27T06:19:53;101483.91;;;6.72;94.57
45763;BME280;37512;52.408;13.356;2023-04-27T06:23:55;101496.63;;;6.99;92.91
45763;BME280;37512;52.408;13.356;2023-04-27T06:27:57;101500.06;;;6.56;92.46
45763;BME280;37512;52.408;13.356;2023-04-27T06:31:58;101498.81;;;6.62;93.14
45763;BME280;37512;52.408;13.356;2023-04-27T06:36:00;101500.94;;;6.25;94.66
45763;BME280;37512;52.408;13.356;2023-04-27T06:40:02;101494.88;;;6.54;92.55
45763;BME280;37512;52.408;13.356;2023-04-27T06:44:04;101498.84;;;6.79;91.45
45763;BME280;37512;52.408;13.356;2023-04-27T06:48:06;101512.41;;;5.96;89.60
45763;BME280;37512;52.408;13.356;2023-04-27T06:52:07;101506.25;;;6.21;89.88
45763;BME280;37512;52.408;13.356;2023-04-27T06:56:10;101505.88;;;6.45;86.35
45763;BME280;37512;52.408;13.356;2023-04-27T07:00:12;101506.78;;;6.72;82.55
45763;BME280;37512;52.408;13.356;2023-04-27T07:04:14;101514.44;;;6.75;84.42
45763;BME280;37512;52.408;13.356;2023-04-27T07:08:15;101510.28;;;7.04;82.86
45763;BME280;37512;52.408;13.356;2023-04-27T07:12:17;101513.56;;;7.41;80.30
45763;BME280;37512;52.408;13.356;2023-04-27T07:16:19;101517.63;;;7.43;80.86
45763;BME280;37512;52.408;13.356;2023-04-27T07:20:21;101519.56;;;7.34;83.18
45763;BME280;37512;52.408;13.356;2023-04-27T07:24:22;101520.91;;;7.71;79.95
45763;BME280;37512;52.408;13.356;2023-04-27T07:28:24;101521.69;;;7.63;79.76
45763;BME280;37512;52.408;13.356;2023-04-27T07:32:25;101521.72;;;7.46;79.42
45763;BME280;37512;52.408;13.356;2023-04-27T07:36:27;101513.25;;;7.16;81.30
45763;BME280;37512;52.408;13.356;2023-04-27T07:40:29;101517.31;;;7.53;77.31
45763;BME280;37512;52.408;13.356;2023-04-27T07:44:33;101523.63;;;7.19;79.16
45763;BME280;37512;52.408;13.356;2023-04-27T07:48:35;101520.91;;;7.63;78.70
45763;BME280;37512;52.408;13.356;2023-04-27T07:52:36;101522.19;;;7.57;81.70
45763;BME280;37512;52.408;13.356;2023-04-27T07:56:41;101527.22;;;7.81;77.52
45763;BME280;37512;52.408;13.356;2023-04-27T08:00:42;101538.34;;;8.28;72.63
45763;BME280;37512;52.408;13.356;2023-04-27T08:04:44;101543.31;;;7.61;73.65
45763;BME280;37512;52.408;13.356;2023-04-27T08:08:46;101533.09;;;7.53;74.21
45763;BME280;37512;52.408;13.356;2023-04-27T08:12:48;101541.06;;;7.89;69.52
45763;BME280;37512;52.408;13.356;2023-04-27T08:16:49;101546.09;;;7.96;68.88
45763;BME280;37512;52.408;13.356;2023-04-27T08:20:52;101536.00;;;7.83;69.54
45763;BME280;37512;52.408;13.356;2023-04-27T08:24:54;101544.47;;;7.60;72.51
45763;BME280;37512;52.408;13.356;2023-04-27T08:28:55;101543.66;;;7.86;70.73
45763;BME280;37512;52.408;13.356;2023-04-27T08:32:57;101545.28;;;7.61;69.05
45763;BME280;37512;52.408;13.356;2023-04-27T08:36:59;101529.81;;;8.12;68.82
45763;BME280;37512;52.408;13.356;2023-04-27T08:41:00;101535.66;;;7.93;68.50
45763;BME280;37512;52.408;13.356;2023-04-27T08:45:25;101549.16;;;7.68;69.99
45763;BME280;37512;52.408;13.356;2023-04-27T08:49:26;101551.47;;;7.58;73.53
45763;BME280;37512;52.408;13.356;2023-04-27T08:53:28;101548.97;;;7.21;78.66
45763;BME280;37512;52.408;13.356;2023-04-27T08:57:30;101551.75;;;7.39;85.32
45763;BME280;37512;52.408;13.356;2023-04-27T09:01:32;101554.72;;;7.60;84.05
45763;BME280;37512;52.408;13.356;2023-04-27T09:05:34;101546.84;;;7.27;79.72
45763;BME280;37512;52.408;13.356;2023-04-27T09:09:35;101552.19;;;7.06;81.49
45763;BME280;37512;52.408;13.356;2023-04-27T09:13:38;101552.56;;;7.48;78.02
45763;BME280;37512;52.408;13.356;2023-04-27T09:17:43;101550.97;;;6.81;77.76
45763;BME280;37512;52.408;13.356;2023-04-27T09:21:44;101549.81;;;7.39;78.11
45763;BME280;37512;52.408;13.356;2023-04-27T09:25:48;101544.78;;;7.32;76.01
45763;BME280;37512;52.408;13.356;2023-04-27T09:29:50;101542.47;;;8.04;71.25
45763;BME280;37512;52.408;13.356;2023-04-27T09:33:54;101541.72;;;8.59;64.85
45763;BME280;37512;52.408;13.356;2023-04-27T09:37:57;101525.72;;;8.74;64.09
45763;BME280;37512;52.408;13.356;2023-04-27T09:41:59;101527.72;;;7.74;67.61
45763;BME280;37512;52.408;13.356;2023-04-27T09:46:03;101530.66;;;7.60;70.29
45763;BME280;37512;52.408;13.356;2023-04-27T09:50:05;101536.50;;;7.59;75.40
45763;BME280;37512;52.408;13.356;2023-04-27T09:54:10;101517.16;;;7.67;77.64
45763;BME280;37512;52.408;13.356;2023-04-27T10:03:16;101523.78;;;7.14;75.93
45763;BME280;37512;52.408;13.356;2023-04-27T10:07:26;101523.97;;;7.61;76.07
45763;BME280;37512;52.408;13.356;2023-04-27T10:11:40;101517.47;;;7.66;76.57
45763;BME280;37512;52.408;13.356;2023-04-27T10:15:43;101515.06;;;7.64;70.97
45763;BME280;37512;52.408;13.356;2023-04-27T10:19:53;101516.03;;;7.42;69.79
45763;BME280;37512;52.408;13.356;2023-04-27T10:24:06;101521.53;;;7.68;69.83
45763;BME280;37512;52.408;13.356;2023-04-27T10:28:16;101527.38;;;7.93;67.94
45763;BME280;37512;52.408;13.356;2023-04-27T10:32:22;101519.66;;;8.25;68.08
45763;BME280;37512;52.408;13.356;2023-04-27T10:36:36;101525.78;;;7.48;65.68
45763;BME280;37512;52.408;13.356;2023-04-27T10:40:38;101524.16;;;7.65;66.04
45763;BME280;37512;52.408;13.356;2023-04-27T10:44:39;101523.72;;;9.13;56.94
45763;BME280;37512;52.408;13.356;2023-04-27T10:48:42;101509.38;;;10.07;54.30
45763;BME280;37512;52.408;13.356;2023-04-27T10:52:44;101519.22;;;10.38;53.61
45763;BME280;37512;52.408;13.356;2023-04-27T10:56:48;101506.50;;;10.74;53.40
45763;BME280;37512;52.408;13.356;2023-04-27T11:00:50;101498.16;;;9.70;52.18
45763;BME280;37512;52.408;13.356;2023-04-27T11:04:52;101502.25;;;10.18;51.54
45763;BME280;37512;52.408;13.356;2023-04-27T11:08:55;101506.03;;;9.26;53.25
45763;BME280;37512;52.408;13.356;2023-04-27T11:12:57;101509.06;;;8.44;58.51
45763;BME280;37512;52.408;13.356;2023-04-27T11:16:59;101512.78;;;8.87;57.96
45763;BME280;37512;52.408;13.356;2023-04-27T11:21:10;101514.41;;;8.49;59.65
45763;BME280;37512;52.408;13.356;2023-04-27T11:25:12;101517.09;;;9.68;58.24
45763;BME280;37512;52.408;13.356;2023-04-27T11:29:14;101505.09;;;10.43;49.91
45763;BME280;37512;52.408;13.356;2023-04-27T11:33:16;101497.94;;;10.91;47.21
45763;BME280;37512;52.408;13.356;2023-04-27T11:37:22;101514.31;;;9.68;47.91
45763;BME280;37512;52.408;13.356;2023-04-27T11:41:35;101504.78;;;10.57;48.78
45763;BME280;37512;52.408;13.356;2023-04-27T11:45:41;101511.69;;;10.38;47.53
45763;BME280;37512;52.408;13.356;2023-04-27T11:49:48;101524.31;;;10.60;46.22
45763;BME280;37512;52.408;13.356;2023-04-27T11:53:50;101522.72;;;10.26;45.69
45763;BME280;37512;52.408;13.356;2023-04-27T11:57:56;101523.16;;;10.49;48.11
45763;BME280;37512;52.408;13.356;2023-04-27T12:01:59;101539.94;;;9.44;46.34
45763;BME280;37512;52.408;13.356;2023-04-27T12:06:01;101544.91;;;9.09;46.77
45763;BME280;37512;52.408;13.356;2023-04-27T12:10:06;101542.94;;;9.09;48.09
45763;BME280;37512;52.408;13.356;2023-04-27T12:14:08;101538.78;;;9.24;47.51
45763;BME280;37512;52.408;13.356;2023-04-27T12:18:10;101535.75;;;9.59;48.16
45763;BME280;37512;52.408;13.356;2023-04-27T12:22:11;101543.66;;;9.90;45.98
45763;BME280;37512;52.408;13.356;2023-04-27T12:26:15;101541.88;;;10.19;44.90
45763;BME280;37512;52.408;13.356;2023-04-27T12:30:17;101540.16;;;11.74;42.92
45763;BME280;37512;52.408;13.356;2023-04-27T12:34:19;101519.38;;;12.12;41.43
45763;BME280;37512;52.408;13.356;2023-04-27T12:38:21;101538.78;;;11.03;40.94
45763;BME280;37512;52.408;13.356;2023-04-27T12:42:22;101534.34;;;10.07;42.02
45763;BME280;37512;52.408;13.356;2023-04-27T12:46:24;101532.63;;;10.60;40.36
45763;BME280;37512;52.408;13.356;2023-04-27T12:50:26;101535.91;;;10.87;39.57
45763;BME280;37512;52.408;13.356;2023-04-27T12:54:27;101535.97;;;10.41;41.10
45763;BME280;37512;52.408;13.356;2023-04-27T12:58:29;101547.44;;;9.64;43.08
45763;BME280;37512;52.408;13.356;2023-04-27T13:02:31;101533.59;;;10.77;43.67
45763;BME280;37512;52.408;13.356;2023-04-27T13:06:33;101538.88;;;10.70;43.91
45763;BME280;37512;52.408;13.356;2023-04-27T13:10:35;101537.00;;;11.35;43.09
45763;BME280;37512;52.408;13.356;2023-04-27T13:14:37;101533.56;;;12.07;42.95
45763;BME280;37512;52.408;13.356;2023-04-27T13:18:39;101544.00;;;10.67;43.58
45763;BME280;37512;52.408;13.356;2023-04-27T13:22:41;101536.81;;;11.16;43.12
45763;BME280;37512;52.408;13.356;2023-04-27T13:26:42;101532.22;;;10.95;43.57
45763;BME280;37512;52.408;13.356;2023-04-27T13:30:44;101533.81;;;10.59;44.43
45763;BME280;37512;52.408;13.356;2023-04-27T13:34:45;101539.44;;;10.51;43.48
45763;BME280;37512;52.408;13.356;2023-04-27T13:38:47;101536.59;;;10.72;42.85
45763;BME280;37512;52.408;13.356;2023-04-27T13:42:48;101534.25;;;11.10;41.53
45763;BME280;37512;52.408;13.356;2023-04-27T13:46:51;101537.41;;;11.09;42.36
45763;BME280;37512;52.408;13.356;2023-04-27T13:50:53;101531.28;;;10.79;41.70
45763;BME280;37512;52.408;13.356;2023-04-27T13:54:55;101530.81;;;12.86;40.31
45763;BME280;37512;52.408;13.356;2023-04-27T13:58:57;101536.22;;;14.05;37.58
45763;BME280;37512;52.408;13.356;2023-04-27T14:03:01;101538.78;;;13.35;37.74
45763;BME280;37512;52.408;13.356;2023-04-27T14:07:05;101525.78;;;13.08;37.19
45763;BME280;37512;52.408;13.356;2023-04-27T14:11:06;101522.97;;;14.63;34.15
45763;BME280;37512;52.408;13.356;2023-04-27T14:15:08;101533.34;;;14.63;34.50
45763;BME280;37512;52.408;13.356;2023-04-27T14:19:10;101520.31;;;15.84;32.35
45763;BME280;37512;52.408;13.356;2023-04-27T14:23:15;101527.88;;;12.63;36.14
45763;BME280;37512;52.408;13.356;2023-04-27T14:27:18;101527.97;;;11.91;38.34
45763;BME280;37512;52.408;13.356;2023-04-27T14:31:19;101523.84;;;12.01;39.39
45763;BME280;37512;52.408;13.356;2023-04-27T14:35:23;101526.59;;;11.20;40.24
45763;BME280;37512;52.408;13.356;2023-04-27T14:39:25;101535.66;;;11.04;40.28
45763;BME280;37512;52.408;13.356;2023-04-27T14:43:28;101519.53;;;12.03;40.63
45763;BME280;37512;52.408;13.356;2023-04-27T14:47:29;101523.63;;;13.91;37.35
45763;BME280;37512;52.408;13.356;2023-04-27T14:51:32;101520.25;;;13.63;37.45
45763;BME280;37512;52.408;13.356;2023-04-27T14:55:34;101521.59;;;11.38;37.78
45763;BME280;37512;52.408;13.356;2023-04-27T14:59:36;101527.31;;;13.05;37.24
45763;BME280;37512;52.408;13.356;2023-04-27T15:03:38;101526.56;;;14.64;34.20
45763;BME280;37512;52.408;13.356;2023-04-27T15:07:41;101529.16;;;14.11;33.45
45763;BME280;37512;52.408;13.356;2023-04-27T15:11:43;101519.50;;;12.95;35.53
45763;BME280;37512;52.408;13.356;2023-04-27T15:15:45;101530.25;;;12.17;36.93
45763;BME280;37512;52.408;13.356;2023-04-27T15:19:46;101524.25;;;11.46;38.41
45763;BME280;37512;52.408;13.356;2023-04-27T15:23:48;101524.44;;;12.38;38.74
45763;BME280;37512;52.408;13.356;2023-04-27T15:27:49;101516.69;;;12.95;36.54
45763;BME280;37512;52.408;13.356;2023-04-27T15:31:51;101509.16;;;13.66;35.96
45763;BME280;37512;52.408;13.356;2023-04-27T15:35:53;101514.03;;;12.67;36.01
45763;BME280;37512;52.408;13.356;2023-04-27T15:39:55;101514.94;;;13.38;36.19
45763;BME280;37512;52.408;13.356;2023-04-27T15:43:57;101516.97;;;14.19;35.32
45763;BME280;37512;52.408;13.356;2023-04-27T15:47:58;101503.88;;;13.42;36.11
45763;BME280;37512;52.408;13.356;2023-04-27T15:52:00;101500.34;;;13.84;36.10
45763;BME280;37512;52.408;13.356;2023-04-27T15:56:02;101495.75;;;14.83;35.28
45763;BME280;37512;52.408;13.356;2023-04-27T16:00:06;101498.09;;;12.99;37.53
45763;BME280;37512;52.408;13.356;2023-04-27T16:04:10;101494.41;;;13.46;36.21
45763;BME280;37512;52.408;13.356;2023-04-27T16:08:12;101493.88;;;13.79;35.24
45763;BME280;37512;52.408;13.356;2023-04-27T16:12:13;101485.19;;;14.04;36.12
45763;BME280;37512;52.408;13.356;2023-04-27T16:16:15;101478.81;;;14.27;36.38
45763;BME280;37512;52.408;13.356;2023-04-27T16:20:17;101477.44;;;15.16;34.36
45763;BME280;37512;52.408;13.356;2023-04-27T16:24:18;101481.63;;;15.30;34.59
45763;BME280;37512;52.408;13.356;2023-04-27T16:28:20;101479.00;;;16.52;32.91
45763;BME280;37512;52.408;13.356;2023-04-27T16:32:22;101476.22;;;17.04;30.47
45763;BME280;37512;52.408;13.356;2023-04-27T16:36:24;101478.41;;;16.33;30.42
45763;BME280;37512;52.408;13.356;2023-04-27T16:40:25;101474.38;;;15.89;31.94
45763;BME280;37512;52.408;13.356;2023-04-27T16:44:27;101475.84;;;15.76;30.62
45763;BME280;37512;52.408;13.356;2023-04-27T16:48:28;101472.38;;;15.89;31.12
45763;BME280;37512;52.408;13.356;2023-04-27T16:52:30;101476.22;;;16.12;29.04
45763;BME280;37512;52.408;13.356;2023-04-27T16:56:33;101475.97;;;16.72;29.41
45763;BME280;37512;52.408;13.356;2023-04-27T17:00:35;101479.03;;;17.08;27.75
45763;BME280;37512;52.408;13.356;2023-04-27T17:04:38;101477.34;;;15.39;30.44
45763;BME280;37512;52.408;13.356;2023-04-27T17:08:41;101482.34;;;15.53;31.39
45763;BME280;37512;52.408;13.356;2023-04-27T17:12:42;101481.59;;;14.50;32.47
45763;BME280;37512;52.408;13.356;2023-04-27T17:16:44;101482.13;;;13.90;32.99
45763;BME280;37512;52.408;13.356;2023-04-27T17:20:45;101478.88;;;14.53;33.16
45763;BME280;37512;52.408;13.356;2023-04-27T17:24:47;101484.22;;;12.51;34.74
45763;BME280;37512;52.408;13.356;2023-04-27T17:28:49;101480.16;;;13.51;34.17
45763;BME280;37512;52.408;13.356;2023-04-27T17:32:51;101481.28;;;13.66;34.28
45763;BME280;37512;52.408;13.356;2023-04-27T17:36:52;101484.91;;;12.01;36.89
45763;BME280;37512;52.408;13.356;2023-04-27T17:40:54;101479.78;;;10.69;38.03
45763;BME280;37512;52.408;13.356;2023-04-27T17:44:56;101475.84;;;12.04;37.07
45763;BME280;37512;52.408;13.356;2023-04-27T17:48:57;101476.28;;;11.78;37.81
45763;BME280;37512;52.408;13.356;2023-04-27T17:52:59;101477.97;;;11.95;39.00
45763;BME280;37512;52.408;13.356;2023-04-27T17:57:00;101485.63;;;11.17;40.61
45763;BME280;37512;52.408;13.356;2023-04-27T18:01:02;101489.34;;;10.35;41.49
45763;BME280;37512;52.408;13.356;2023-04-27T18:05:05;101477.13;;;10.73;40.82
45763;BME280;37512;52.408;13.356;2023-04-27T18:09:06;101488.56;;;10.01;41.32
45763;BME280;37512;52.408;13.356;2023-04-27T18:13:09;101484.97;;;10.46;43.07
45763;BME280;37512;52.408;13.356;2023-04-27T18:17:10;101495.31;;;10.70;43.14
45763;BME280;37512;52.408;13.356;2023-04-27T18:21:12;101493.78;;;10.48;42.98
45763;BME280;37512;52.408;13.356;2023-04-27T18:25:13;101497.00;;;9.71;42.58
45763;BME280;37512;52.408;13.356;2023-04-27T18:29:15;101509.13;;;10.00;44.20
45763;BME280;37512;52.408;13.356;2023-04-27T18:33:17;101505.41;;;9.96;44.79
45763;BME280;37512;52.408;13.356;2023-04-27T18:37:21;101519.06;;;9.68;47.03
45763;BME280;37512;52.408;13.356;2023-04-27T18:41:23;101512.69;;;9.46;48.50
45763;BME280;37512;52.408;13.356;2023-04-27T18:45:24;101518.88;;;9.31;49.27
45763;BME280;37512;52.408;13.356;2023-04-27T18:49:26;101525.53;;;9.09;49.45
45763;BME280;37512;52.408;13.356;2023-04-27T18:53:28;101530.38;;;8.82;54.16
45763;BME280;37512;52.408;13.356;2023-04-27T18:57:33;101526.19;;;8.76;56.63
45763;BME280;37512;52.408;13.356;2023-04-27T19:01:35;101531.31;;;8.56;59.04
45763;BME280;37512;52.408;13.356;2023-04-27T19:05:39;101536.75;;;8.44;59.54
45763;BME280;37512;52.408;13.356;2023-04-27T19:09:43;101532.16;;;8.40;61.31
45763;BME280;37512;52.408;13.356;2023-04-27T19:13:44;101531.88;;;8.24;63.02
45763;BME280;37512;52.408;13.356;2023-04-27T19:17:47;101536.63;;;8.14;64.13
45763;BME280;37512;52.408;13.356;2023-04-27T19:22:06;101532.09;;;7.92;65.63
45763;BME280;37512;52.408;13.356;2023-04-27T19:26:08;101532.09;;;7.75;66.49
45763;BME280;37512;52.408;13.356;2023-04-27T19:30:14;101530.50;;;7.74;69.27
45763;BME280;37512;52.408;13.356;2023-04-27T19:34:16;101535.53;;;7.63;69.96
45763;BME280;37512;52.408;13.356;2023-04-27T19:38:19;101532.75;;;7.63;70.96
45763;BME280;37512;52.408;13.356;2023-04-27T19:42:22;101529.50;;;7.52;70.55
45763;BME280;37512;52.408;13.356;2023-04-27T19:46:25;101524.63;;;7.41;70.80
45763;BME280;37512;52.408;13.356;2023-04-27T19:50:27;101534.38;;;7.38;70.74
45763;BME280;37512;52.408;13.356;2023-04-27T19:54:28;101532.75;;;7.28;71.56
45763;BME280;37512;52.408;13.356;2023-04-27T19:58:30;101523.63;;;7.19;72.25
45763;BME280;37512;52.408;13.356;2023-04-27T20:02:31;101521.03;;;7.14;74.48
45763;BME280;37512;52.408;13.356;2023-04-27T20:06:33;101519.00;;;6.88;79.01
45763;BME280;37512;52.408;13.356;2023-04-27T20:10:35;101521.91;;;6.83;80.56
45763;BME280;37512;52.408;13.356;2023-04-27T20:14:36;101511.06;;;6.87;81.01
45763;BME280;37512;52.408;13.356;2023-04-27T20:18:39;101519.28;;;6.69;82.36
45763;BME280;37512;52.408;13.356;2023-04-27T20:22:40;101513.25;;;6.67;82.29
45763;BME280;37512;52.408;13.356;2023-04-27T20:26:42;101519.25;;;6.61;83.07
45763;BME280;37512;52.408;13.356;2023-04-27T20:30:43;101510.63;;;6.54;82.01
45763;BME280;37512;52.408;13.356;2023-04-27T20:34:45;101506.84;;;6.49;82.53
45763;BME280;37512;52.408;13.356;2023-04-27T20:38:46;101512.38;;;6.49;84.14
45763;BME280;37512;52.408;13.356;2023-04-27T20:42:48;101511.53;;;6.40;85.93
45763;BME280;37512;52.408;13.356;2023-04-27T20:46:50;101503.78;;;6.20;86.48
45763;BME280;37512;52.408;13.356;2023-04-27T20:50:52;101514.91;;;6.06;85.25
45763;BME280;37512;52.408;13.356;2023-04-27T20:54:53;101506.38;;;5.94;87.37
45763;BME280;37512;52.408;13.356;2023-04-27T20:58:56;101500.50;;;5.86;88.72
45763;BME280;37512;52.408;13.356;2023-04-27T21:02:57;101503.19;;;5.78;89.11